This is the latest recevied weather packets stored in our database for station/object SQ5MBG-1. If no packets are shown the sender has not sent any weather packets the latest 1 day(s).
| Time | Temp. | Humidity | Pressure | Rain* | Wind** | Luminosity | Snow |
|---|---|---|---|---|---|---|---|
| 1778054658 | 26.11° C | 39% | 991.4 hPa | 0 mm | - | - | - |
| 1778054358 | 25.56° C | 39% | 991.7 hPa | 0 mm | - | - | - |
| 1778054058 | 25.56° C | 40% | 991.4 hPa | 0 mm | - | - | - |
| 1778053458 | 25° C | 39% | 991.6 hPa | 0 mm | - | - | - |
| 1778052858 | 24.44° C | 43% | 991.6 hPa | 0 mm | - | - | - |
| 1778052558 | 24.44° C | 43% | 991.7 hPa | 0 mm | - | - | - |
| 1778052258 | 24.44° C | 44% | 991.8 hPa | 0 mm | - | - | - |
| 1778051658 | 24.44° C | 44% | 991.8 hPa | 0 mm | - | - | - |
| 1778051358 | 24.44° C | 44% | 991.9 hPa | 0 mm | - | - | - |
| 1778051058 | 23.89° C | 45% | 992 hPa | 0 mm | - | - | - |
| 1778050458 | 23.89° C | 46% | 991.9 hPa | 0 mm | - | - | - |
| 1778049558 | 22.78° C | 48% | 992.4 hPa | 0 mm | - | - | - |
| 1778048058 | 21.67° C | 51% | 992.3 hPa | 0 mm | - | - | - |
| 1778047458 | 21.67° C | 53% | 992.3 hPa | 0 mm | - | - | - |
| 1778046858 | 21.11° C | 55% | 992.3 hPa | 0 mm | - | - | - |
| 1778046258 | 20.56° C | 57% | 992.4 hPa | 0 mm | - | - | - |
| 1778045958 | 20.56° C | 58% | 992.4 hPa | 0 mm | - | - | - |
| 1778044158 | 18.89° C | 65% | 992.7 hPa | 0 mm | - | - | - |
| 1778043558 | 18.33° C | 68% | 992.7 hPa | 0 mm | - | - | - |
| 1778042958 | 16.67° C | 74% | 992 hPa | 0 mm | - | - | - |
| 1778041758 | 13.33° C | 77% | 992.5 hPa | 0 mm | - | - | - |
| 1778041458 | 13.33° C | 77% | 992.7 hPa | 0 mm | - | - | - |
| 1778040259 | 13.33° C | 76% | 992.9 hPa | 0 mm | - | - | - |
| 1778039658 | 13.33° C | 75% | 993.1 hPa | 0 mm | - | - | - |
| 1778039058 | 13.33° C | 74% | 993 hPa | 0 mm | - | - | - |
* Rain latest hour (hover to see other rain measurements)
** Current wind speed in m/s (hover to see current wind gust speed)